Time;durP1;ratioP1;P1;durP2;ratioP2;P2;SDS_P1;SDS_P2;PMS_P1;PMS_P2;Temp;Humidity;BMP_temperature;BMP_pressure;BME280_temperature;BME280_humidity;BME280_pressure;Samples;Min_cycle;Max_cycle;Signal;HPM_P1;HPM_P2
2021/12/25 00:02:27;;;;;;;27.13;15.02;;;;;;;4.85;100.00;100342.34;5267639;28;20029;-70
2021/12/25 00:04:58;;;;;;;24.20;14.05;;;;;;;4.84;100.00;100341.50;5270101;28;20082;-70
2021/12/25 00:07:30;;;;;;;24.95;13.98;;;;;;;4.78;100.00;100336.59;5262306;28;20115;-70
2021/12/25 00:10:03;;;;;;;26.90;14.95;;;;;;;4.79;100.00;100338.28;5290433;27;20052;-70
2021/12/25 00:12:35;;;;;;;27.58;14.60;;;;;;;4.81;100.00;100344.31;5265983;28;20431;-70
2021/12/25 00:15:06;;;;;;;26.20;14.95;;;;;;;4.76;100.00;100343.78;5260624;28;20373;-70
2021/12/25 00:17:37;;;;;;;27.27;14.88;;;;;;;4.78;100.00;100344.53;5267059;28;20025;-70
2021/12/25 00:20:09;;;;;;;29.30;16.08;;;;;;;4.79;100.00;100343.56;5265432;28;20033;-70
2021/12/25 00:22:40;;;;;;;31.23;16.15;;;;;;;4.81;100.00;100341.69;5262094;28;20043;-70
2021/12/25 00:25:12;;;;;;;31.23;16.30;;;;;;;4.79;100.00;100333.00;5261367;28;20036;-70
2021/12/25 00:27:53;;;;;;;25.08;15.07;;;;;;;4.76;100.00;100327.91;5255904;28;20021;-70
2021/12/25 00:30:38;;;;;;;27.15;15.50;;;;;;;4.76;100.00;100320.00;5254162;28;20024;-70
2021/12/25 00:33:32;;;;;;;26.48;15.70;;;;;;;4.74;100.00;100329.81;5260056;28;20115;-70
2021/12/25 00:36:01;;;;;;;27.38;15.35;;;;;;;4.66;100.00;100322.34;5259325;28;20036;-70
2021/12/25 00:38:33;;;;;;;27.48;15.77;;;;;;;4.66;100.00;100325.00;5261795;28;20379;-70
2021/12/25 00:41:05;;;;;;;27.52;15.77;;;;;;;4.70;100.00;100330.94;5256671;28;20039;-70
2021/12/25 00:43:36;;;;;;;31.35;16.83;;;;;;;4.68;100.00;100338.13;5260505;28;20122;-70
2021/12/25 00:46:07;;;;;;;27.70;15.45;;;;;;;4.70;100.00;100336.22;5259832;28;20028;-70
2021/12/25 00:48:39;;;;;;;30.55;16.25;;;;;;;4.66;100.00;100337.31;5259440;28;20028;-70
2021/12/25 00:51:11;;;;;;;28.80;15.52;;;;;;;4.64;100.00;100329.53;5256291;28;20044;-70
2021/12/25 00:53:42;;;;;;;32.20;16.25;;;;;;;4.64;100.00;100337.44;5250923;28;20029;-70
2021/12/25 00:56:14;;;;;;;32.33;16.73;;;;;;;4.65;100.00;100339.13;5252992;28;20036;-70
2021/12/25 00:58:45;;;;;;;33.60;16.65;;;;;;;4.64;100.00;100332.16;5256368;28;20112;-70
2021/12/25 01:01:16;;;;;;;32.08;17.00;;;;;;;4.60;100.00;100335.94;5256515;28;20028;-70
2021/12/25 01:03:49;;;;;;;34.20;17.63;;;;;;;4.60;100.00;100333.28;5251006;28;20035;-70
2021/12/25 01:06:20;;;;;;;34.03;18.02;;;;;;;4.58;100.00;100332.50;5254180;28;20024;-70
2021/12/25 01:08:52;;;;;;;31.05;16.55;;;;;;;4.53;100.00;100339.03;5254289;28;20580;-70
2021/12/25 01:11:26;;;;;;;32.15;16.75;;;;;;;4.59;100.00;100336.00;5254401;28;20081;-70
2021/12/25 01:14:04;;;;;;;32.10;17.58;;;;;;;4.58;100.00;100335.16;5254569;28;20398;-70
2021/12/25 01:19:53;;;;;;;30.80;17.55;;;;;;;4.57;100.00;100333.47;5255636;28;20486;-70
2021/12/25 01:22:58;;;;;;;34.60;17.60;;;;;;;4.57;100.00;100322.91;5253478;28;20047;-70
2021/12/25 01:25:32;;;;;;;37.35;18.67;;;;;;;4.52;100.00;100322.31;5259393;28;20090;-70
2021/12/25 01:41:57;;;;;;;45.90;22.70;;;;;;;4.49;100.00;100330.44;5259146;28;20032;-70
2021/12/25 01:50:08;;;;;;;46.05;22.77;;;;;;;4.45;100.00;100332.41;5268749;28;20032;-70
2021/12/25 01:52:39;;;;;;;47.22;23.55;;;;;;;4.43;100.00;100326.38;5262460;28;20047;-70
2021/12/25 01:55:15;;;;;;;49.38;25.17;;;;;;;4.46;100.00;100326.16;5268547;28;20029;-70
2021/12/25 01:57:47;;;;;;;47.00;25.48;;;;;;;4.44;100.00;100317.47;5258843;28;20108;-70
2021/12/25 02:00:26;;;;;;;49.83;25.95;;;;;;;4.40;100.00;100318.59;5258262;28;20051;-70
2021/12/25 02:02:58;;;;;;;50.47;26.55;;;;;;;4.38;100.00;100320.50;5257280;28;20108;-70
2021/12/25 02:05:29;;;;;;;48.60;26.05;;;;;;;4.39;100.00;100329.25;5256416;28;20474;-70
2021/12/25 02:08:01;;;;;;;51.33;25.85;;;;;;;4.34;100.00;100326.91;5263928;28;20039;-70
2021/12/25 02:10:33;;;;;;;55.28;27.38;;;;;;;4.37;100.00;100323.22;5265535;28;20032;-70
2021/12/25 02:13:04;;;;;;;49.58;26.23;;;;;;;4.30;100.00;100322.75;5264699;28;20028;-70
2021/12/25 02:15:36;;;;;;;52.45;27.35;;;;;;;4.31;100.00;100327.94;5265135;28;20021;-70
2021/12/25 02:18:15;;;;;;;53.80;27.13;;;;;;;4.31;100.00;100324.44;5264445;28;20131;-70
2021/12/25 02:20:56;;;;;;;59.28;28.67;;;;;;;4.31;100.00;100321.78;5257464;28;20032;-70
2021/12/25 02:23:31;;;;;;;58.58;29.60;;;;;;;4.29;100.00;100318.38;5257304;28;20375;-70
2021/12/25 02:26:03;;;;;;;57.92;28.00;;;;;;;4.28;100.00;100320.19;5256619;28;20754;-70
2021/12/25 02:28:35;;;;;;;56.47;28.77;;;;;;;4.23;100.00;100316.97;5256138;28;20021;-70
2021/12/25 02:31:12;;;;;;;58.72;29.33;;;;;;;4.20;100.00;100318.91;5255058;28;20137;-70
2021/12/25 02:33:44;;;;;;;59.28;28.42;;;;;;;4.20;100.00;100318.91;5254539;28;20066;-70
2021/12/25 02:36:16;;;;;;;56.88;28.23;;;;;;;4.20;100.00;100311.00;5259545;28;20066;-70
2021/12/25 02:38:49;;;;;;;56.13;28.90;;;;;;;4.17;100.00;100316.47;5258160;28;20033;-70
2021/12/25 02:41:20;;;;;;;57.63;29.05;;;;;;;4.18;100.00;100318.16;5252883;28;20033;-70
2021/12/25 02:43:51;;;;;;;62.70;29.50;;;;;;;4.23;100.00;100319.59;5256544;28;20289;-69
2021/12/25 02:46:24;;;;;;;56.35;27.92;;;;;;;4.18;100.00;100321.69;5259547;28;20025;-70
2021/12/25 02:48:58;;;;;;;58.58;28.70;;;;;;;4.15;100.00;100323.66;5265047;28;20034;-70
2021/12/25 02:51:29;;;;;;;57.13;28.13;;;;;;;4.13;100.00;100329.00;5261554;28;20075;-70
2021/12/25 02:54:00;;;;;;;58.63;28.50;;;;;;;4.13;100.00;100332.50;5265764;28;20127;-70
2021/12/25 02:56:32;;;;;;;54.08;28.05;;;;;;;4.08;100.00;100320.50;5269207;28;20049;-70
2021/12/25 02:59:03;;;;;;;49.30;24.80;;;;;;;4.07;100.00;100332.84;5266229;28;20119;-70
2021/12/25 03:01:34;;;;;;;44.25;23.15;;;;;;;3.97;100.00;100323.78;5265545;28;20041;-70
2021/12/25 03:04:06;;;;;;;45.58;24.25;;;;;;;3.95;100.00;100320.38;5258555;28;20040;-70
2021/12/25 03:06:38;;;;;;;42.97;23.15;;;;;;;3.91;100.00;100321.47;5272270;28;20298;-70
2021/12/25 03:09:09;;;;;;;41.35;22.27;;;;;;;3.84;100.00;100330.69;5267877;28;20040;-70
2021/12/25 03:11:40;;;;;;;38.42;21.33;;;;;;;3.80;100.00;100339.72;5268526;28;20036;-70
2021/12/25 03:14:24;;;;;;;45.53;23.58;;;;;;;3.74;100.00;100327.72;5266331;28;20063;-70
2021/12/25 03:16:56;;;;;;;40.30;21.13;;;;;;;3.69;100.00;100341.16;5269040;28;20082;-70
2021/12/25 03:19:32;;;;;;;39.72;21.48;;;;;;;3.68;100.00;100350.03;5266859;28;20032;-70
2021/12/25 03:22:04;;;;;;;41.35;20.75;;;;;;;3.55;100.00;100349.00;5266797;28;20036;-70
2021/12/25 03:24:35;;;;;;;43.72;21.27;;;;;;;3.49;100.00;100347.56;5261464;28;20054;-70
2021/12/25 03:27:07;;;;;;;44.47;22.33;;;;;;;3.41;100.00;100355.00;5269260;28;20474;-70
2021/12/25 03:29:41;;;;;;;48.03;22.38;;;;;;;3.43;100.00;100360.19;5259626;28;20482;-70
2021/12/25 03:32:12;;;;;;;48.27;21.33;;;;;;;3.38;100.00;100355.19;5258749;28;20029;-70
2021/12/25 03:34:43;;;;;;;47.58;22.42;;;;;;;3.34;100.00;100367.69;5269736;28;20482;-71
2021/12/25 03:37:15;;;;;;;51.65;22.45;;;;;;;3.32;100.00;100363.44;5267425;28;20622;-71
2021/12/25 03:39:46;;;;;;;48.20;23.35;;;;;;;3.27;100.00;100366.31;5267899;28;20075;-71
2021/12/25 03:42:18;;;;;;;46.10;21.73;;;;;;;3.21;100.00;100361.38;5266536;28;20036;-70
2021/12/25 03:44:49;;;;;;;44.92;21.08;;;;;;;3.20;100.00;100372.84;5263346;28;20896;-71
2021/12/25 03:47:26;;;;;;;46.47;21.38;;;;;;;3.13;100.00;100368.84;5258596;28;20024;-71
2021/12/25 03:58:31;;;;;;;43.47;21.20;;;;;;;2.95;100.00;100378.56;5270004;28;20389;-72
2021/12/25 04:01:24;;;;;;;44.65;21.27;;;;;;;2.91;100.00;100377.03;5263040;28;20319;-72
2021/12/25 04:04:14;;;;;;;47.30;21.90;;;;;;;2.96;100.00;100384.72;5265975;28;20035;-72
2021/12/25 04:06:58;;;;;;;44.00;21.13;;;;;;;2.91;100.00;100374.38;5262454;28;20032;-72
2021/12/25 04:09:32;;;;;;;51.10;22.10;;;;;;;2.87;100.00;100378.13;5257055;28;20103;-72
2021/12/25 04:12:07;;;;;;;51.97;22.27;;;;;;;2.87;100.00;100392.13;5264591;28;20555;-73
2021/12/25 04:14:39;;;;;;;49.92;22.73;;;;;;;2.78;100.00;100392.63;5255566;28;20122;-73
2021/12/25 04:17:10;;;;;;;48.95;21.98;;;;;;;2.76;100.00;100389.19;5259134;28;20086;-73
2021/12/25 04:19:42;;;;;;;48.88;23.13;;;;;;;2.72;100.00;100398.19;5260433;28;20052;-72
2021/12/25 04:22:22;;;;;;;42.88;21.80;;;;;;;2.64;100.00;100397.75;5259484;28;20024;-73
2021/12/25 04:24:54;;;;;;;41.53;20.25;;;;;;;2.61;100.00;100397.88;5257399;28;20028;-73
2021/12/25 04:27:25;;;;;;;49.15;22.02;;;;;;;2.58;100.00;100395.41;5257896;28;20507;-72
2021/12/25 04:30:04;;;;;;;48.35;22.63;;;;;;;2.59;100.00;100403.25;5267173;28;20024;-73
2021/12/25 05:06:06;;;;;;;53.20;26.58;;;;;;;1.44;100.00;100443.81;5265823;28;20032;-73
2021/12/25 05:08:38;;;;;;;61.40;27.77;;;;;;;1.45;100.00;100448.13;5258530;28;20775;-73
2021/12/25 05:11:10;;;;;;;56.88;26.73;;;;;;;1.38;100.00;100446.69;5264431;28;20028;-73
2021/12/25 05:13:42;;;;;;;64.35;29.00;;;;;;;1.36;100.00;100453.78;5265182;28;20147;-73
2021/12/25 05:16:13;;;;;;;73.85;30.77;;;;;;;1.31;100.00;100440.84;5266601;28;20155;-73
2021/12/25 05:18:44;;;;;;;60.97;28.70;;;;;;;1.22;100.00;100456.19;5260890;28;20549;-73
2021/12/25 05:21:18;;;;;;;72.22;31.05;;;;;;;1.20;100.00;100463.28;5260710;28;20063;-74
2021/12/25 05:23:49;;;;;;;68.18;29.98;;;;;;;1.11;100.00;100461.91;5263177;28;20448;-73
2021/12/25 05:26:20;;;;;;;64.53;29.60;;;;;;;0.97;100.00;100462.50;5268002;28;20036;-73
2021/12/25 05:29:02;;;;;;;69.28;29.23;;;;;;;0.92;100.00;100465.34;5259890;28;20123;-73
2021/12/25 05:31:35;;;;;;;65.30;28.38;;;;;;;0.90;100.00;100461.03;5259939;28;20512;-74
2021/12/25 05:34:07;;;;;;;61.53;28.45;;;;;;;0.83;100.00;100463.09;5255075;28;20028;-74
2021/12/25 05:36:38;;;;;;;70.85;30.77;;;;;;;0.82;100.00;100468.41;5263905;28;20043;-73
2021/12/25 05:39:12;;;;;;;66.65;29.42;;;;;;;0.84;100.00;100466.56;5261285;28;20025;-73
2021/12/25 05:41:44;;;;;;;70.00;30.50;;;;;;;0.79;100.00;100469.41;5267122;28;20046;-73
2021/12/25 05:44:15;;;;;;;77.55;31.27;;;;;;;0.74;100.00;100471.34;5259001;28;20029;-73
2021/12/25 05:46:46;;;;;;;64.85;29.70;;;;;;;0.71;100.00;100476.72;5255757;28;20044;-73
2021/12/25 05:49:18;;;;;;;73.57;30.05;;;;;;;0.68;100.00;100474.25;5262960;28;20021;-73
2021/12/25 05:51:49;;;;;;;66.05;28.33;;;;;;;0.55;100.00;100477.34;5259667;28;20024;-73
2021/12/25 05:54:20;;;;;;;67.00;28.38;;;;;;;0.53;100.00;100475.72;5261282;28;20063;-74
2021/12/25 05:56:52;;;;;;;63.88;28.35;;;;;;;0.51;100.00;100481.03;5264027;28;20036;-73
2021/12/25 05:59:23;;;;;;;72.32;30.75;;;;;;;0.49;100.00;100482.00;5265657;28;20028;-73
2021/12/25 06:01:54;;;;;;;64.20;27.77;;;;;;;0.46;100.00;100480.38;5260251;28;20552;-74
2021/12/25 06:04:26;;;;;;;67.25;29.33;;;;;;;0.48;100.00;100485.53;5263272;28;20028;-74
2021/12/25 06:06:57;;;;;;;75.10;30.52;;;;;;;0.57;100.00;100488.66;5265113;28;20398;-74
2021/12/25 06:09:29;;;;;;;99.78;34.22;;;;;;;0.50;100.00;100496.84;5265437;28;20048;-74
2021/12/25 06:12:00;;;;;;;66.38;29.15;;;;;;;0.38;100.00;100500.81;5264014;28;20031;-74
2021/12/25 06:14:32;;;;;;;69.35;28.88;;;;;;;0.31;100.00;100497.59;5263654;28;20024;-74
2021/12/25 06:17:03;;;;;;;71.65;29.45;;;;;;;0.28;100.00;100497.69;5251510;28;20086;-74
2021/12/25 06:19:34;;;;;;;73.03;29.48;;;;;;;0.25;100.00;100504.81;5253599;28;20028;-74
2021/12/25 06:22:06;;;;;;;72.55;30.05;;;;;;;0.17;100.00;100502.50;5256666;28;20054;-74
2021/12/25 06:24:40;;;;;;;68.60;27.67;;;;;;;0.27;100.00;100505.63;5261698;28;20037;-74
2021/12/25 06:27:11;;;;;;;71.93;28.67;;;;;;;0.26;100.00;100511.81;5257275;28;20051;-73
2021/12/25 06:29:43;;;;;;;79.60;29.40;;;;;;;0.26;100.00;100517.06;5254983;28;20500;-74
2021/12/25 06:32:15;;;;;;;69.55;27.77;;;;;;;0.28;100.00;100515.22;5254210;28;20470;-74
2021/12/25 06:34:46;;;;;;;64.65;26.13;;;;;;;0.21;100.00;100518.97;5260200;28;20462;-74
2021/12/25 06:37:19;;;;;;;63.13;26.23;;;;;;;0.15;100.00;100520.06;5263722;28;20111;-74
2021/12/25 06:39:50;;;;;;;64.22;26.75;;;;;;;0.11;100.00;100521.97;5255423;28;20115;-74
2021/12/25 06:42:22;;;;;;;60.85;26.48;;;;;;;0.09;100.00;100515.06;5261364;28;20032;-74
2021/12/25 06:44:55;;;;;;;66.53;27.23;;;;;;;0.13;100.00;100517.50;5252577;28;20037;-74
2021/12/25 06:47:26;;;;;;;61.47;25.60;;;;;;;0.06;100.00;100517.81;5257072;28;20029;-74
2021/12/25 06:49:57;;;;;;;57.88;25.05;;;;;;;0.03;100.00;100518.78;5257684;28;20627;-74
2021/12/25 06:52:28;;;;;;;57.35;24.80;;;;;;;0.06;100.00;100525.66;5254990;28;20458;-74
2021/12/25 06:55:00;;;;;;;52.45;24.35;;;;;;;0.04;100.00;100522.25;5262260;28;20477;-74
2021/12/25 06:57:32;;;;;;;58.05;23.75;;;;;;;0.04;100.00;100527.50;5263208;28;20600;-74
2021/12/25 07:00:03;;;;;;;62.50;26.00;;;;;;;0.11;100.00;100534.22;5261595;28;20039;-74
2021/12/25 07:02:35;;;;;;;55.53;24.33;;;;;;;0.08;100.00;100529.97;5260812;28;20458;-74
2021/12/25 07:05:06;;;;;;;59.08;24.23;;;;;;;0.07;100.00;100536.09;5253240;28;20497;-74
2021/12/25 07:07:38;;;;;;;54.35;24.08;;;;;;;0.06;100.00;100547.53;5253852;28;20563;-74
2021/12/25 07:10:09;;;;;;;58.75;25.58;;;;;;;0.07;100.00;100540.50;5264473;28;20124;-74
2021/12/25 07:12:45;;;;;;;56.30;23.40;;;;;;;0.04;100.00;100551.09;5263032;28;20060;-74
2021/12/25 07:15:17;;;;;;;56.30;24.30;;;;;;;0.06;100.00;100550.16;5269636;28;20038;-74
2021/12/25 07:17:48;;;;;;;60.63;24.88;;;;;;;0.01;100.00;100548.63;5263869;28;20471;-74
2021/12/25 07:20:19;;;;;;;65.00;26.23;;;;;;;-0.01;100.00;100546.88;5259766;28;20032;-74
2021/12/25 07:22:50;;;;;;;63.30;24.50;;;;;;;0.02;100.00;100556.44;5256083;28;20337;-75
2021/12/25 07:25:24;;;;;;;62.08;25.05;;;;;;;-0.04;100.00;100552.28;5263488;28;20028;-75
2021/12/25 07:27:56;;;;;;;61.45;25.20;;;;;;;-0.02;100.00;100560.94;5257942;28;20020;-74
2021/12/25 07:30:27;;;;;;;54.22;24.13;;;;;;;-0.05;100.00;100575.91;5264006;28;20486;-74
2021/12/25 07:32:59;;;;;;;48.58;22.75;;;;;;;-0.09;100.00;100569.94;5262359;28;20032;-74
2021/12/25 07:35:30;;;;;;;53.88;23.27;;;;;;;-0.09;100.00;100574.31;5268870;28;20032;-74
2021/12/25 07:38:02;;;;;;;49.33;22.83;;;;;;;-0.14;100.00;100573.63;5266830;28;20525;-74
2021/12/25 07:40:33;;;;;;;63.65;25.10;;;;;;;-0.13;100.00;100570.97;5274237;28;20031;-74
2021/12/25 07:43:04;;;;;;;57.20;23.23;;;;;;;-0.14;100.00;100582.34;5266563;28;20163;-74
2021/12/25 07:45:36;;;;;;;59.00;23.73;;;;;;;-0.15;100.00;100571.91;5268447;28;20450;-74
2021/12/25 07:48:07;;;;;;;55.05;23.67;;;;;;;-0.18;100.00;100574.66;5270247;28;20056;-77
2021/12/25 07:50:40;;;;;;;46.20;21.98;;;;;;;-0.23;100.00;100577.44;5267986;28;20031;-75
2021/12/25 07:53:12;;;;;;;51.13;22.13;;;;;;;-0.20;100.00;100575.56;5268718;28;20459;-74
2021/12/25 07:55:44;;;;;;;48.88;21.92;;;;;;;-0.18;100.00;100579.91;5260611;28;20044;-74
2021/12/25 07:58:17;;;;;;;53.63;22.88;;;;;;;-0.14;100.00;100576.25;5255534;28;20031;-75
2021/12/25 08:00:48;;;;;;;48.40;22.77;;;;;;;-0.14;100.00;100574.47;5266698;28;20114;-74
2021/12/25 08:03:20;;;;;;;53.25;22.48;;;;;;;-0.18;100.00;100579.91;5256964;28;20040;-74
2021/12/25 08:05:51;;;;;;;41.38;19.42;;;;;;;-0.23;100.00;100590.53;5265921;28;20033;-74
2021/12/25 08:08:23;;;;;;;41.85;19.55;;;;;;;-0.21;100.00;100591.38;5265722;28;20048;-74
2021/12/25 08:10:55;;;;;;;38.67;19.67;;;;;;;-0.23;100.00;100595.78;5271025;28;21770;-74
2021/12/25 08:13:27;;;;;;;36.45;18.80;;;;;;;-0.30;100.00;100605.66;5263077;28;20029;-74
2021/12/25 08:15:58;;;;;;;35.65;18.67;;;;;;;-0.30;100.00;100607.41;5266508;28;20038;-74
2021/12/25 08:18:31;;;;;;;38.38;18.00;;;;;;;-0.33;100.00;100607.50;5269031;28;20490;-74
2021/12/25 08:21:04;;;;;;;32.38;17.02;;;;;;;-0.36;100.00;100600.63;5271335;28;20050;-74
2021/12/25 08:23:36;;;;;;;35.38;17.25;;;;;;;-0.36;100.00;100612.88;5272422;28;20458;-74
2021/12/25 08:26:09;;;;;;;32.25;17.45;;;;;;;-0.38;100.00;100609.44;5268840;28;20025;-74
2021/12/25 08:28:40;;;;;;;34.42;17.27;;;;;;;-0.40;100.00;100607.75;5271180;28;20052;-75
2021/12/25 08:31:11;;;;;;;34.55;16.33;;;;;;;-0.46;100.00;100617.56;5266852;28;20154;-74
2021/12/25 08:33:42;;;;;;;30.80;16.45;;;;;;;-0.48;100.00;100622.00;5274093;28;20028;-74
2021/12/25 08:36:14;;;;;;;32.90;16.80;;;;;;;-0.49;100.00;100629.00;5268589;28;20119;-74
2021/12/25 08:38:45;;;;;;;34.22;16.95;;;;;;;-0.47;100.00;100631.59;5273204;28;20028;-74
2021/12/25 08:41:16;;;;;;;34.63;17.33;;;;;;;-0.41;100.00;100636.63;5267987;28;20034;-74
2021/12/25 08:43:49;;;;;;;35.50;18.10;;;;;;;-0.41;100.00;100628.75;5268481;28;20033;-74
2021/12/25 08:46:41;;;;;;;34.20;17.90;;;;;;;-0.44;100.00;100642.81;5274041;28;20024;-74
2021/12/25 08:49:17;;;;;;;31.63;16.35;;;;;;;-0.48;100.00;100641.22;5269038;28;20026;-74
2021/12/25 08:51:48;;;;;;;28.30;15.35;;;;;;;-0.56;100.00;100648.47;5268504;28;20134;-74
2021/12/25 08:54:19;;;;;;;28.90;15.40;;;;;;;-0.58;100.00;100655.53;5268448;28;20024;-74
2021/12/25 08:56:51;;;;;;;34.90;16.48;;;;;;;-0.58;100.00;100645.03;5267539;28;20494;-74
2021/12/25 08:59:22;;;;;;;30.17;15.35;;;;;;;-0.54;100.00;100661.53;5270810;28;20448;-74
2021/12/25 09:01:54;;;;;;;30.35;15.75;;;;;;;-0.59;100.00;100653.84;5260580;28;20564;-74
2021/12/25 09:04:26;;;;;;;29.25;15.88;;;;;;;-0.57;100.00;100654.63;5267745;28;20056;-73
2021/12/25 09:06:58;;;;;;;30.83;16.20;;;;;;;-0.54;100.00;100651.88;5271731;28;20201;-73
2021/12/25 09:09:30;;;;;;;29.63;15.20;;;;;;;-0.57;100.00;100644.16;5269316;28;20079;-74
2021/12/25 09:12:02;;;;;;;28.35;15.80;;;;;;;-0.58;100.00;100659.91;5269426;28;20603;-73
2021/12/25 09:14:33;;;;;;;28.75;15.45;;;;;;;-0.58;100.00;100660.75;5269843;28;20051;-73
2021/12/25 09:17:05;;;;;;;29.48;15.43;;;;;;;-0.62;100.00;100652.16;5265286;28;20115;-74
2021/12/25 09:19:37;;;;;;;28.23;15.13;;;;;;;-0.65;100.00;100668.00;5268277;28;20103;-73
2021/12/25 09:22:11;;;;;;;29.58;15.45;;;;;;;-0.57;100.00;100661.66;5266601;28;20328;-74
2021/12/25 09:24:42;;;;;;;30.27;15.50;;;;;;;-0.62;100.00;100660.00;5261838;28;20043;-74
2021/12/25 09:27:13;;;;;;;29.30;15.52;;;;;;;-0.65;100.00;100664.53;5265867;28;20028;-76
2021/12/25 09:29:45;;;;;;;30.33;16.08;;;;;;;-0.66;100.00;100653.16;5264601;28;20036;-73
2021/12/25 09:32:17;;;;;;;28.85;15.48;;;;;;;-0.64;100.00;100653.13;5266821;28;20027;-73
2021/12/25 09:34:48;;;;;;;26.23;14.52;;;;;;;-0.66;100.00;100653.16;5264914;28;20029;-73
2021/12/25 09:37:20;;;;;;;27.83;14.80;;;;;;;-0.65;100.00;100654.88;5269623;28;20033;-69
2021/12/25 09:39:51;;;;;;;28.92;15.40;;;;;;;-0.63;100.00;100660.09;5267041;28;20482;-74
2021/12/25 09:42:24;;;;;;;26.17;13.98;;;;;;;-0.68;100.00;100662.84;5261038;28;20035;-73
2021/12/25 09:44:56;;;;;;;25.10;13.97;;;;;;;-0.68;100.00;100662.00;5257186;28;20024;-73
2021/12/25 09:47:28;;;;;;;26.25;14.20;;;;;;;-0.68;100.00;100668.06;5263811;28;20379;-73
2021/12/25 09:49:59;;;;;;;24.27;13.85;;;;;;;-0.76;100.00;100683.19;5271643;28;20096;-73
2021/12/25 09:52:31;;;;;;;26.20;13.95;;;;;;;-0.71;100.00;100676.06;5267586;28;20028;-73
2021/12/25 09:55:03;;;;;;;30.65;15.13;;;;;;;-0.65;100.00;100675.84;5273576;28;20028;-73
2021/12/25 09:57:35;;;;;;;28.67;14.63;;;;;;;-0.71;100.00;100694.41;5269039;28;20196;-72
2021/12/25 10:00:20;;;;;;;25.35;14.48;;;;;;;-0.72;100.00;100697.91;5270807;28;20037;-72
2021/12/25 10:02:53;;;;;;;21.85;12.98;;;;;;;-0.74;100.00;100704.13;5269756;28;20036;-72
2021/12/25 10:05:26;;;;;;;23.93;13.90;;;;;;;-0.75;100.00;100702.38;5271302;28;20478;-72
2021/12/25 10:08:12;;;;;;;24.63;13.82;;;;;;;-0.75;100.00;100718.09;5266593;28;20455;-73
2021/12/25 10:10:49;;;;;;;22.27;13.32;;;;;;;-0.73;100.00;100711.94;5269662;28;20033;-73
2021/12/25 10:13:22;;;;;;;26.23;14.50;;;;;;;-0.73;100.00;100711.03;5273672;28;20024;-73
2021/12/25 10:16:17;;;;;;;27.52;14.75;;;;;;;-0.73;100.00;100708.44;5270691;28;20033;-73
2021/12/25 10:18:50;;;;;;;25.50;13.63;;;;;;;-0.70;100.00;100711.81;5273261;28;20060;-73
2021/12/25 10:21:29;;;;;;;27.10;15.82;;;;;;;-0.66;100.00;100708.19;5267203;28;20455;-72
2021/12/25 10:24:08;;;;;;;25.17;14.70;;;;;;;-0.70;100.00;100706.56;5273559;28;20470;-73
2021/12/25 10:26:43;;;;;;;24.20;13.52;;;;;;;-0.70;100.00;100708.34;5270195;28;20486;-72
2021/12/25 10:29:20;;;;;;;24.70;13.70;;;;;;;-0.69;100.00;100707.41;5272708;28;20020;-73
2021/12/25 10:31:55;;;;;;;24.45;13.80;;;;;;;-0.69;100.00;100713.53;5273740;28;20045;-72
2021/12/25 10:34:30;;;;;;;27.42;14.70;;;;;;;-0.67;100.00;100716.09;5270152;28;20036;-72
2021/12/25 10:37:07;;;;;;;23.80;13.90;;;;;;;-0.68;100.00;100712.63;5270538;28;20021;-72
2021/12/25 10:39:39;;;;;;;23.25;13.38;;;;;;;-0.72;100.00;100707.53;5265657;28;20394;-72
2021/12/25 10:42:17;;;;;;;24.15;13.57;;;;;;;-0.73;100.00;100709.31;5271920;28;20020;-72
2021/12/25 10:44:55;;;;;;;24.58;13.40;;;;;;;-0.71;100.00;100709.22;5274405;28;20024;-72
2021/12/25 10:47:30;;;;;;;24.15;13.70;;;;;;;-0.73;100.00;100713.66;5271455;28;20028;-72
2021/12/25 10:50:11;;;;;;;22.42;12.65;;;;;;;-0.74;100.00;100715.44;5270824;28;20025;-72
2021/12/25 10:52:47;;;;;;;22.42;12.98;;;;;;;-0.83;100.00;100710.47;5274761;28;20493;-72
2021/12/25 10:55:24;;;;;;;21.77;12.60;;;;;;;-0.80;100.00;100707.78;5271954;28;20382;-72
2021/12/25 10:57:58;;;;;;;19.23;11.10;;;;;;;-0.85;100.00;100705.28;5274997;28;20025;-71
2021/12/25 11:00:33;;;;;;;19.40;11.65;;;;;;;-0.85;100.00;100701.81;5270146;28;20056;-71
2021/12/25 11:03:08;;;;;;;17.23;11.00;;;;;;;-0.90;100.00;100704.59;5273100;28;20043;-71
2021/12/25 11:05:48;;;;;;;18.15;10.55;;;;;;;-0.92;100.00;100703.78;5272859;28;20052;-72
2021/12/25 11:08:23;;;;;;;18.17;10.80;;;;;;;-0.95;100.00;100697.78;5273956;28;20167;-71
2021/12/25 11:11:20;;;;;;;;;;;;;;;-0.89;100.00;100708.06;5270872;28;20919;-71
2021/12/25 11:13:57;;;;;;;18.38;10.57;;;;;;;-0.90;100.00;100698.47;5269946;28;19966;-71
2021/12/25 11:16:32;;;;;;;19.45;10.52;;;;;;;-0.91;100.00;100707.25;5263460;28;20038;-71
2021/12/25 11:19:11;;;;;;;17.90;10.70;;;;;;;-0.93;100.00;100715.16;5267360;28;20040;-71
2021/12/25 11:21:45;;;;;;;17.75;9.80;;;;;;;-0.89;100.00;100718.53;5272037;28;20028;-71
2021/12/25 11:24:20;;;;;;;18.55;10.35;;;;;;;-0.94;100.00;100717.81;5272408;28;20066;-71
2021/12/25 11:26:54;;;;;;;13.98;8.90;;;;;;;-1.04;100.00;100719.88;5275526;28;20039;-71
2021/12/25 11:29:29;;;;;;;16.23;8.80;;;;;;;-1.08;100.00;100713.00;5270385;28;20474;-71
2021/12/25 11:32:03;;;;;;;17.73;8.52;;;;;;;-1.15;100.00;100708.84;5271520;28;20020;-71
2021/12/25 11:34:35;;;;;;;14.48;7.68;;;;;;;-1.19;100.00;100700.22;5267951;28;20382;-71
2021/12/25 11:37:06;;;;;;;12.50;7.13;;;;;;;-1.20;100.00;100690.69;5270200;28;20028;-70
2021/12/25 11:39:38;;;;;;;14.18;7.57;;;;;;;-1.27;100.00;100689.16;5269856;28;20063;-70
2021/12/25 11:42:11;;;;;;;10.32;6.40;;;;;;;-1.33;100.00;100686.72;5270937;28;20028;-70
2021/12/25 11:44:48;;;;;;;10.88;6.57;;;;;;;-1.34;100.00;100683.25;5270449;28;20085;-70
2021/12/25 11:47:28;;;;;;;11.77;7.03;;;;;;;-1.38;100.00;100687.72;5267414;28;20025;-69
2021/12/25 11:50:05;;;;;;;11.27;6.78;;;;;;;-1.42;100.00;100686.09;5268963;28;20490;-69
2021/12/25 11:52:53;;;;;;;12.90;7.07;;;;;;;-1.41;100.00;100698.25;5266313;28;20081;-69
2021/12/25 11:58:42;;;;;;;13.10;6.93;;;;;;;-1.32;100.00;100704.13;5272365;28;20025;-70
2021/12/25 12:01:29;;;;;;;15.55;6.88;;;;;;;-1.34;100.00;100698.06;5272121;28;20201;-69
2021/12/25 12:04:21;;;;;;;12.00;6.60;;;;;;;-1.33;100.00;100694.56;5274805;28;20378;-70
2021/12/25 12:07:08;;;;;;;10.38;6.07;;;;;;;-1.34;100.00;100692.84;5273371;28;20040;-69
2021/12/25 12:09:45;;;;;;;12.43;6.35;;;;;;;-1.34;100.00;100695.47;5272047;28;20036;-69
2021/12/25 12:12:17;;;;;;;9.95;6.15;;;;;;;-1.32;100.00;100698.88;5268563;28;20043;-69
2021/12/25 12:15:07;;;;;;;10.38;6.43;;;;;;;-1.36;100.00;100697.25;5267865;28;20698;-70
2021/12/25 12:17:39;;;;;;;11.93;5.80;;;;;;;-1.38;100.00;100694.72;5268271;28;20112;-69
2021/12/25 12:20:16;;;;;;;10.43;5.60;;;;;;;-1.39;100.00;100693.00;5265271;28;20078;-70
2021/12/25 12:22:58;;;;;;;9.35;5.30;;;;;;;-1.40;100.00;100693.88;5272764;28;20060;-70
2021/12/25 12:28:10;;;;;;;9.50;5.10;;;;;;;-1.40;100.00;100673.81;5271945;28;20033;-70
2021/12/25 12:30:45;;;;;;;8.77;4.95;;;;;;;-1.39;100.00;100667.66;5267763;28;20473;-70
2021/12/25 12:33:17;;;;;;;10.25;5.18;;;;;;;-1.36;100.00;100661.50;5270291;28;20141;-70
2021/12/25 12:35:50;;;;;;;10.90;5.45;;;;;;;-1.32;100.00;100662.25;5269369;28;20036;-70
2021/12/25 12:41:34;;;;;;;10.35;4.90;;;;;;;-1.31;100.00;100656.13;5271136;28;20032;-70
2021/12/25 12:44:24;;;;;;;8.00;4.55;;;;;;;-1.36;100.00;100658.00;5269180;28;20028;-70
2021/12/25 12:47:05;;;;;;;9.32;4.70;;;;;;;-1.35;100.00;100655.34;5272166;28;20031;-70
2021/12/25 12:49:38;;;;;;;8.60;4.50;;;;;;;-1.41;100.00;100659.00;5272549;28;20016;-70
2021/12/25 12:52:20;;;;;;;8.95;4.18;;;;;;;-1.43;100.00;100660.81;5274112;28;20478;-70